createdAt,value
2018-09-29T00:02:00.126Z,5.67
2018-09-29T00:04:28.682Z,5.82
2018-09-29T00:06:57.277Z,6.03
2018-09-29T00:09:25.844Z,6.10
2018-09-29T00:11:54.430Z,6.16
2018-09-29T00:14:23.037Z,6.22
2018-09-29T00:16:51.594Z,6.17
2018-09-29T00:19:20.135Z,6.32
2018-09-29T00:21:48.857Z,6.15
2018-09-29T00:24:17.423Z,6.19
2018-09-29T00:26:46.206Z,6.19
2018-09-29T00:29:14.747Z,6.24
2018-09-29T00:31:43.314Z,6.09
2018-09-29T00:34:11.917Z,6.01
2018-09-29T00:36:40.515Z,5.92
2018-09-29T00:39:09.441Z,5.97
2018-09-29T00:41:38.121Z,5.93
2018-09-29T00:44:07.083Z,5.78
2018-09-29T00:46:35.706Z,5.66
2018-09-29T00:49:04.297Z,5.53
2018-09-29T00:51:32.858Z,5.59
2018-09-29T00:57:00.455Z,5.65
2018-09-29T00:59:29.054Z,5.77
2018-09-29T01:01:57.626Z,5.68
2018-09-29T01:04:27.202Z,5.85
2018-09-29T01:06:55.762Z,6.07
2018-09-29T01:09:24.404Z,5.99
2018-09-29T01:11:52.973Z,6.07
2018-09-29T01:14:21.543Z,6.07
2018-09-29T01:16:50.170Z,6.21
2018-09-29T01:19:18.742Z,5.96
2018-09-29T01:21:47.337Z,6.12
2018-09-29T01:24:15.934Z,6.10
2018-09-29T01:26:44.526Z,6.13
2018-09-29T01:29:13.179Z,6.00
2018-09-29T01:31:41.862Z,6.02
2018-09-29T01:34:10.681Z,6.05
2018-09-29T01:36:39.330Z,6.00
2018-09-29T01:39:09.898Z,5.96
2018-09-29T01:41:38.777Z,6.11
2018-09-29T01:44:07.650Z,6.07
2018-09-29T01:46:36.540Z,6.02
2018-09-29T01:49:05.304Z,6.12
2018-09-29T01:51:34.264Z,6.16
2018-09-29T01:54:02.877Z,6.09
2018-09-29T01:56:31.622Z,6.04
2018-09-29T01:59:00.249Z,6.12
2018-09-29T02:01:28.849Z,6.07
2018-09-29T02:03:57.414Z,6.06
2018-09-29T02:06:26.013Z,6.07
2018-09-29T02:08:55.276Z,6.03
2018-09-29T02:11:23.839Z,6.00
2018-09-29T02:13:52.526Z,5.88
2018-09-29T02:16:21.102Z,6.00
2018-09-29T02:18:49.790Z,6.06
2018-09-29T02:21:18.325Z,5.95
2018-09-29T02:23:47.000Z,5.89
2018-09-29T02:26:15.578Z,5.94
2018-09-29T02:28:44.158Z,6.02
2018-09-29T02:31:12.707Z,5.93
2018-09-29T02:33:41.286Z,5.91
2018-09-29T02:36:09.822Z,5.85
2018-09-29T02:38:38.406Z,5.71
2018-09-29T02:41:07.009Z,5.73
2018-09-29T02:43:35.554Z,5.61
2018-09-29T02:46:04.409Z,5.63
2018-09-29T02:48:32.957Z,5.68
2018-09-29T02:51:01.526Z,5.68
2018-09-29T02:53:30.060Z,5.58
2018-09-29T02:55:58.610Z,5.58
2018-09-29T02:58:27.170Z,5.46
2018-09-29T03:00:55.830Z,5.51
2018-09-29T03:03:24.406Z,5.45
2018-09-29T03:05:52.985Z,5.49
2018-09-29T03:08:21.629Z,5.43
2018-09-29T03:10:50.304Z,5.41
2018-09-29T03:13:18.852Z,5.45
2018-09-29T03:15:47.461Z,5.28
2018-09-29T03:18:16.074Z,5.42
2018-09-29T03:20:45.117Z,5.26
2018-09-29T03:23:13.740Z,5.15
2018-09-29T03:25:42.281Z,5.07
2018-09-29T03:28:10.916Z,5.05
2018-09-29T03:30:39.529Z,4.91
2018-09-29T03:33:08.121Z,4.88
2018-09-29T03:50:38.461Z,5.16
2018-09-29T03:53:06.776Z,5.07
2018-09-29T03:55:35.156Z,4.97
2018-09-29T03:58:03.594Z,4.90
2018-09-29T04:00:31.918Z,4.88
2018-09-29T04:03:00.240Z,4.85
2018-09-29T04:05:28.591Z,4.91
2018-09-29T04:07:56.904Z,4.86
2018-09-29T04:10:25.220Z,4.75
2018-09-29T04:12:53.548Z,4.67
2018-09-29T04:15:21.995Z,4.81
2018-09-29T04:17:50.326Z,4.87
2018-09-29T04:20:18.689Z,4.94
2018-09-29T04:22:46.995Z,4.78
2018-09-29T04:25:15.348Z,4.90
2018-09-29T04:27:43.677Z,4.95
2018-09-29T04:30:11.992Z,4.93
2018-09-29T04:32:40.345Z,4.92
2018-09-29T04:35:08.692Z,5.05
2018-09-29T04:37:37.066Z,4.97
2018-09-29T04:40:05.631Z,4.98
2018-09-29T04:42:33.960Z,4.84
2018-09-29T04:45:02.283Z,4.78
2018-09-29T04:47:30.756Z,4.74
2018-09-29T04:49:59.056Z,4.72
2018-09-29T04:52:27.455Z,4.68
2018-09-29T04:54:55.763Z,4.87
2018-09-29T04:57:24.112Z,4.79
2018-09-29T04:59:52.651Z,4.83
2018-09-29T05:02:21.083Z,4.89
2018-09-29T05:04:49.870Z,4.94
2018-09-29T05:07:18.191Z,4.96
2018-09-29T05:09:46.503Z,5.00
2018-09-29T05:12:14.880Z,5.05
2018-09-29T05:14:43.184Z,4.99
2018-09-29T05:17:11.963Z,4.89
2018-09-29T05:19:40.296Z,4.99
2018-09-29T05:22:08.647Z,4.91
2018-09-29T05:24:37.083Z,4.92
2018-09-29T05:27:05.504Z,4.80
2018-09-29T05:29:33.827Z,4.78
2018-09-29T05:32:02.179Z,4.79
2018-09-29T05:34:30.494Z,4.86
2018-09-29T05:36:58.798Z,4.93
2018-09-29T05:39:27.307Z,4.97
2018-09-29T05:41:56.043Z,5.08
2018-09-29T05:44:24.363Z,5.12
2018-09-29T05:46:53.243Z,5.20
2018-09-29T05:49:21.957Z,5.19
2018-09-29T05:51:50.279Z,5.19
2018-09-29T05:54:18.645Z,5.22
2018-09-29T05:56:46.988Z,5.24
2018-09-29T05:59:15.329Z,5.36
2018-09-29T06:01:43.678Z,5.36
2018-09-29T06:04:11.992Z,5.43
2018-09-29T06:06:40.343Z,5.58
2018-09-29T06:09:09.360Z,5.65
2018-09-29T06:11:37.723Z,5.63
2018-09-29T06:14:06.051Z,5.70
2018-09-29T06:16:34.415Z,5.84
2018-09-29T06:19:02.867Z,5.87
2018-09-29T06:21:31.183Z,5.97
2018-09-29T06:23:59.475Z,6.19
2018-09-29T06:26:27.884Z,6.13
2018-09-29T06:28:56.176Z,6.29
2018-09-29T06:31:24.523Z,6.29
2018-09-29T06:33:52.840Z,6.51
2018-09-29T06:36:21.160Z,7.77
2018-09-29T06:38:49.484Z,10.50
2018-09-29T06:41:17.840Z,12.15
2018-09-29T06:43:46.177Z,13.00
2018-09-29T06:46:14.496Z,12.71
2018-09-29T06:48:42.787Z,13.33
2018-09-29T06:51:11.103Z,12.87
2018-09-29T06:53:39.480Z,13.72
2018-09-29T06:56:08.523Z,14.99
2018-09-29T06:58:36.847Z,16.45
2018-09-29T07:01:05.192Z,16.81
2018-09-29T07:03:33.691Z,16.50
2018-09-29T07:06:02.031Z,17.98
2018-09-29T07:08:30.357Z,17.62
2018-09-29T07:10:58.687Z,18.42
2018-09-29T07:13:27.239Z,18.27
2018-09-29T07:15:55.614Z,18.55
2018-09-29T07:18:23.998Z,18.74
2018-09-29T07:20:52.716Z,19.50
2018-09-29T07:23:21.060Z,19.46
2018-09-29T07:25:49.400Z,19.26
2018-09-29T07:28:17.751Z,19.29
2018-09-29T07:30:46.080Z,17.82
2018-09-29T07:33:14.467Z,18.37
2018-09-29T07:35:42.787Z,19.11
2018-09-29T07:38:11.147Z,19.58
2018-09-29T07:40:39.488Z,19.72
2018-09-29T07:43:07.866Z,19.90
2018-09-29T07:45:36.265Z,18.50
2018-09-29T07:48:04.583Z,19.91
2018-09-29T07:50:32.959Z,21.09
2018-09-29T07:53:01.296Z,20.17
2018-09-29T07:55:29.740Z,21.55
2018-09-29T07:57:58.156Z,19.77
2018-09-29T08:00:26.507Z,21.94
2018-09-29T08:02:54.828Z,22.45
2018-09-29T08:05:23.155Z,23.64
2018-09-29T08:07:51.636Z,22.33
2018-09-29T08:10:19.931Z,21.99
2018-09-29T08:12:48.296Z,23.43
2018-09-29T08:15:16.603Z,23.40
2018-09-29T08:17:45.020Z,23.81
2018-09-29T08:20:13.375Z,24.16
2018-09-29T08:22:41.746Z,22.98
2018-09-29T08:25:10.050Z,23.42
2018-09-29T08:27:38.471Z,24.03
2018-09-29T08:30:06.903Z,23.23
2018-09-29T08:32:35.238Z,25.42
2018-09-29T08:35:03.672Z,26.35
2018-09-29T08:37:31.960Z,24.71
2018-09-29T08:40:00.351Z,24.86
2018-09-29T08:42:28.811Z,26.44
2018-09-29T08:44:57.232Z,25.41
2018-09-29T08:47:25.535Z,26.21
2018-09-29T08:49:53.922Z,28.52
2018-09-29T08:52:22.235Z,28.03
2018-09-29T08:54:50.639Z,27.84
2018-09-29T08:57:18.952Z,25.80
2018-09-29T08:59:47.251Z,27.25
2018-09-29T09:02:15.555Z,26.17
2018-09-29T09:04:43.913Z,26.59
2018-09-29T09:07:12.271Z,27.56
2018-09-29T09:09:40.592Z,28.19
2018-09-29T09:12:08.917Z,27.71
2018-09-29T09:14:37.608Z,27.25
2018-09-29T09:17:05.935Z,27.54
2018-09-29T09:19:34.307Z,28.37
2018-09-29T09:22:02.651Z,28.16
2018-09-29T09:24:31.145Z,27.74
2018-09-29T09:26:59.468Z,27.92
2018-09-29T09:29:28.007Z,27.85
2018-09-29T09:31:56.344Z,30.27
2018-09-29T09:34:24.691Z,28.48
2018-09-29T09:36:53.112Z,28.20
2018-09-29T09:39:21.475Z,28.52
2018-09-29T09:41:49.819Z,28.06
2018-09-29T09:44:20.003Z,28.16
2018-09-29T09:46:48.356Z,28.11
2018-09-29T09:49:16.696Z,29.43
2018-09-29T09:51:45.024Z,29.62
2018-09-29T09:54:13.556Z,28.28
2018-09-29T09:56:42.020Z,27.95
2018-09-29T09:59:10.999Z,26.97
2018-09-29T10:01:44.590Z,27.61
2018-09-29T10:04:12.928Z,28.20
2018-09-29T10:06:41.783Z,28.75
2018-09-29T10:09:11.867Z,31.36
2018-09-29T10:11:40.240Z,29.30
2018-09-29T10:14:08.760Z,29.74
2018-09-29T10:16:37.258Z,30.37
2018-09-29T10:19:06.215Z,32.21
2018-09-29T10:21:34.875Z,28.71
2018-09-29T10:24:03.484Z,31.83
2018-09-29T10:26:32.230Z,32.03
2018-09-29T10:29:00.539Z,31.39
2018-09-29T10:31:28.956Z,30.43
2018-09-29T10:33:57.255Z,30.36
2018-09-29T10:36:26.309Z,30.12
2018-09-29T10:38:54.563Z,29.90
2018-09-29T10:41:22.920Z,29.86
2018-09-29T10:43:51.251Z,31.15
2018-09-29T10:46:19.575Z,30.71
2018-09-29T10:48:47.916Z,29.51
2018-09-29T10:51:16.302Z,30.60
2018-09-29T10:53:44.588Z,29.47
2018-09-29T10:56:13.416Z,31.94
2018-09-29T10:58:41.711Z,30.14
2018-09-29T11:01:10.042Z,31.24
2018-09-29T11:03:38.419Z,32.04
2018-09-29T11:06:06.763Z,31.68
2018-09-29T11:08:35.144Z,33.41
2018-09-29T11:11:03.558Z,32.86
2018-09-29T11:13:31.875Z,32.52
2018-09-29T11:16:00.258Z,32.52
2018-09-29T11:18:28.562Z,31.49
2018-09-29T11:20:56.940Z,31.33
2018-09-29T11:23:25.228Z,31.91
2018-09-29T11:25:53.746Z,31.83
2018-09-29T11:28:22.528Z,31.49
2018-09-29T11:30:51.055Z,31.97
2018-09-29T11:33:19.778Z,30.91
2018-09-29T11:35:48.691Z,30.89
2018-09-29T11:38:17.036Z,30.40
2018-09-29T11:40:45.337Z,30.38
2018-09-29T11:43:13.836Z,30.86
2018-09-29T11:45:42.128Z,30.91
2018-09-29T11:48:10.443Z,31.06
2018-09-29T11:50:39.103Z,30.50
2018-09-29T11:53:08.002Z,30.40
2018-09-29T11:55:36.308Z,29.88
2018-09-29T11:58:05.300Z,29.87
2018-09-29T12:00:33.623Z,27.92
2018-09-29T12:03:02.251Z,28.41
2018-09-29T12:05:30.591Z,30.16
2018-09-29T12:08:00.904Z,30.43
2018-09-29T12:10:30.906Z,31.21
2018-09-29T12:12:59.239Z,32.95
2018-09-29T12:15:27.576Z,31.75
2018-09-29T12:17:55.919Z,30.92
2018-09-29T12:20:24.213Z,31.09
2018-09-29T12:22:52.588Z,30.74
2018-09-29T12:25:20.896Z,30.22
2018-09-29T12:27:49.307Z,31.54
2018-09-29T12:30:17.631Z,30.68
2018-09-29T12:32:46.052Z,31.20
2018-09-29T12:35:14.514Z,31.57
2018-09-29T12:37:42.871Z,31.32
2018-09-29T12:40:11.198Z,30.95
2018-09-29T12:42:39.940Z,31.58
2018-09-29T12:45:08.340Z,32.66
2018-09-29T12:47:36.702Z,32.33
2018-09-29T12:50:05.063Z,29.88
2018-09-29T12:52:33.455Z,32.88
2018-09-29T12:55:01.800Z,32.09
2018-09-29T12:57:30.212Z,31.94
2018-09-29T12:59:58.604Z,31.70
2018-09-29T13:02:26.951Z,31.57
2018-09-29T13:04:55.256Z,30.67
2018-09-29T13:07:23.606Z,32.03
2018-09-29T13:09:51.914Z,33.16
2018-09-29T13:12:20.307Z,31.61
2018-09-29T13:14:48.624Z,30.79
2018-09-29T13:17:16.967Z,30.33
2018-09-29T13:19:45.316Z,31.31
2018-09-29T13:22:13.719Z,31.59
2018-09-29T13:24:42.063Z,29.87
2018-09-29T13:27:10.436Z,31.10
2018-09-29T13:29:38.845Z,30.45
2018-09-29T13:32:07.396Z,30.86
2018-09-29T13:34:36.067Z,30.53
2018-09-29T13:37:04.437Z,30.33
2018-09-29T13:39:33.662Z,29.45
2018-09-29T13:42:04.565Z,30.82
2018-09-29T13:44:33.692Z,30.61
2018-09-29T13:47:02.959Z,29.70
2018-09-29T13:49:31.952Z,29.65
2018-09-29T13:54:33.431Z,28.27
2018-09-29T13:57:02.283Z,30.01
2018-09-29T13:59:30.628Z,29.54
2018-09-29T14:02:00.154Z,30.15
2018-09-29T14:04:28.512Z,29.47
2018-09-29T14:06:58.049Z,31.30
2018-09-29T14:09:27.503Z,30.03
2018-09-29T14:11:56.350Z,28.38
2018-09-29T14:14:24.659Z,29.30
2018-09-29T14:16:53.075Z,28.90
2018-09-29T14:19:21.364Z,29.57
2018-09-29T14:21:49.703Z,28.50
2018-09-29T14:24:18.027Z,28.87
2018-09-29T14:26:46.327Z,28.36
2018-09-29T14:29:14.703Z,28.38
2018-09-29T14:31:43.051Z,29.47
2018-09-29T14:34:11.411Z,27.84
2018-09-29T14:36:39.863Z,28.03
2018-09-29T14:39:09.121Z,28.06
2018-09-29T14:41:38.585Z,27.70
2018-09-29T14:44:07.132Z,28.54
2018-09-29T14:46:35.452Z,28.18
2018-09-29T14:49:03.768Z,28.03
2018-09-29T14:51:32.063Z,27.74
2018-09-29T14:54:00.994Z,27.44
2018-09-29T14:56:29.304Z,27.84
2018-09-29T14:58:57.623Z,26.51
2018-09-29T15:01:25.996Z,26.29
2018-09-29T15:03:54.388Z,26.31
2018-09-29T15:06:22.704Z,26.45
2018-09-29T15:08:51.060Z,25.99
2018-09-29T15:11:19.408Z,26.47
2018-09-29T15:13:47.836Z,24.76
2018-09-29T15:16:16.196Z,24.90
2018-09-29T15:18:44.827Z,24.96
2018-09-29T15:21:14.069Z,24.12
2018-09-29T15:23:42.420Z,24.48
2018-09-29T15:26:10.845Z,25.01
2018-09-29T15:28:39.444Z,24.28
2018-09-29T15:31:08.221Z,24.05
2018-09-29T15:33:36.566Z,24.00
2018-09-29T15:36:05.697Z,23.69
2018-09-29T15:38:34.032Z,23.34
2018-09-29T15:41:07.884Z,23.06
2018-09-29T15:43:36.295Z,22.73
2018-09-29T15:46:04.627Z,22.32
2018-09-29T15:48:33.025Z,22.20
2018-09-29T15:51:01.362Z,21.37
2018-09-29T15:53:29.723Z,21.11
2018-09-29T15:55:58.451Z,20.86
2018-09-29T15:58:26.819Z,20.06
2018-09-29T16:00:55.151Z,20.29
2018-09-29T16:03:23.948Z,19.96
2018-09-29T16:05:52.239Z,20.07
2018-09-29T16:08:20.663Z,20.00
2018-09-29T16:10:48.988Z,20.21
2018-09-29T16:13:17.650Z,19.94
2018-09-29T16:15:45.947Z,19.64
2018-09-29T16:18:14.292Z,19.06
2018-09-29T16:20:42.644Z,18.51
2018-09-29T16:23:11.359Z,17.75
2018-09-29T16:25:40.835Z,17.75
2018-09-29T16:28:09.154Z,17.07
2018-09-29T16:30:37.504Z,16.80
2018-09-29T16:33:05.963Z,16.36
2018-09-29T16:35:34.283Z,16.22
2018-09-29T16:38:02.604Z,15.83
2018-09-29T16:40:31.108Z,15.91
2018-09-29T16:42:59.427Z,15.50
2018-09-29T16:45:27.732Z,15.35
2018-09-29T16:47:56.104Z,15.30
2018-09-29T16:50:24.431Z,15.10
2018-09-29T16:52:52.938Z,14.67
2018-09-29T16:55:21.278Z,14.38
2018-09-29T16:57:50.068Z,14.10
2018-09-29T17:00:18.403Z,13.93
2018-09-29T17:02:46.734Z,13.62
2018-09-29T17:05:15.486Z,13.11
2018-09-29T17:07:43.807Z,12.82
2018-09-29T17:10:12.200Z,12.40
2018-09-29T17:12:41.536Z,12.23
2018-09-29T17:15:09.871Z,11.98
2018-09-29T17:17:38.235Z,11.78
2018-09-29T17:20:06.609Z,11.54
2018-09-29T17:22:34.954Z,11.39
2018-09-29T17:25:03.356Z,11.09
2018-09-29T17:27:31.684Z,10.99
2018-09-29T17:30:00.075Z,10.83
2018-09-29T17:32:28.371Z,10.67
2018-09-29T17:34:56.736Z,10.51
2018-09-29T17:37:25.507Z,10.49
2018-09-29T17:39:53.887Z,10.21
2018-09-29T17:42:22.182Z,9.98
2018-09-29T17:44:50.540Z,9.78
2018-09-29T17:47:19.068Z,9.57
2018-09-29T17:49:47.420Z,9.55
2018-09-29T17:52:15.782Z,9.42
2018-09-29T17:54:44.099Z,9.53
2018-09-29T17:57:12.412Z,9.39
2018-09-29T17:59:40.748Z,9.49
2018-09-29T18:02:09.480Z,9.32
2018-09-29T18:04:37.887Z,9.21
2018-09-29T18:07:06.432Z,9.02
2018-09-29T18:09:34.736Z,9.10
2018-09-29T18:12:03.122Z,9.07
2018-09-29T18:14:31.415Z,8.97
2018-09-29T18:16:59.942Z,9.01
2018-09-29T18:19:28.492Z,9.03
2018-09-29T18:21:57.108Z,8.95
2018-09-29T18:24:25.757Z,8.85
2018-09-29T18:26:54.147Z,8.75
2018-09-29T18:29:22.456Z,8.65
2018-09-29T18:31:50.827Z,8.63
2018-09-29T18:34:19.224Z,8.45
2018-09-29T18:36:47.785Z,8.47
2018-09-29T18:39:16.103Z,8.28
2018-09-29T18:41:45.263Z,8.30
2018-09-29T18:44:13.552Z,8.06
2018-09-29T18:46:41.942Z,8.18
2018-09-29T18:49:10.250Z,8.03
2018-09-29T18:51:38.707Z,8.03
2018-09-29T18:54:07.036Z,8.12
2018-09-29T18:56:35.391Z,8.04
2018-09-29T18:59:03.772Z,7.79
2018-09-29T19:01:32.158Z,7.81
2018-09-29T19:04:00.495Z,7.79
2018-09-29T19:06:28.856Z,7.72
2018-09-29T19:08:57.248Z,7.47
2018-09-29T19:11:25.586Z,7.16
2018-09-29T19:13:53.899Z,7.08
2018-09-29T19:16:23.248Z,7.11
2018-09-29T19:18:51.620Z,7.01
2018-09-29T19:21:20.502Z,7.05
2018-09-29T19:23:48.822Z,7.09
2018-09-29T19:26:17.165Z,6.89
2018-09-29T19:28:45.466Z,6.85
2018-09-29T19:31:13.743Z,6.81
2018-09-29T19:33:42.096Z,6.78
2018-09-29T19:36:10.394Z,6.85
2018-09-29T19:38:38.667Z,6.64
2018-09-29T19:41:07.041Z,6.48
2018-09-29T19:43:35.339Z,6.54
2018-09-29T19:46:03.715Z,6.54
2018-09-29T19:48:31.996Z,6.57
2018-09-29T19:51:00.295Z,6.50
2018-09-29T19:53:28.587Z,6.45
2018-09-29T19:55:56.890Z,6.56
2018-09-29T19:58:25.215Z,6.51
2018-09-29T20:00:53.523Z,6.47
2018-09-29T20:03:21.798Z,6.46
2018-09-29T20:05:50.055Z,6.61
2018-09-29T20:08:18.347Z,6.81
2018-09-29T20:10:46.738Z,6.73
2018-09-29T20:13:15.727Z,6.68
2018-09-29T20:15:44.438Z,6.48
2018-09-29T20:18:13.113Z,6.48
2018-09-29T20:20:41.390Z,6.34
2018-09-29T20:23:12.059Z,6.36
2018-09-29T20:25:40.447Z,6.20
2018-09-29T20:28:08.778Z,6.09
2018-09-29T20:30:37.423Z,5.97
2018-09-29T20:33:06.180Z,5.97
2018-09-29T20:35:34.698Z,5.75
2018-09-29T20:38:03.167Z,5.64
2018-09-29T20:40:31.423Z,5.58
2018-09-29T20:43:00.160Z,5.59
2018-09-29T20:45:28.518Z,5.65
2018-09-29T20:47:56.810Z,5.68
2018-09-29T20:50:25.542Z,5.83
2018-09-29T20:52:53.932Z,5.64
2018-09-29T20:55:22.215Z,5.86
2018-09-29T20:57:50.499Z,5.86
2018-09-29T21:00:18.958Z,5.88
2018-09-29T21:02:47.270Z,5.84
2018-09-29T21:05:15.532Z,5.87
2018-09-29T21:07:43.900Z,5.92
2018-09-29T21:10:12.207Z,5.88
2018-09-29T21:12:40.514Z,5.70
2018-09-29T21:15:08.827Z,5.76
2018-09-29T21:17:37.110Z,5.89
2018-09-29T21:20:05.791Z,5.68
2018-09-29T21:22:34.098Z,5.65
2018-09-29T21:25:02.396Z,5.83
2018-09-29T21:27:30.727Z,6.00
2018-09-29T21:29:59.050Z,5.78
2018-09-29T21:32:27.345Z,5.69
2018-09-29T21:34:55.654Z,5.58
2018-09-29T21:37:23.929Z,5.46
2018-09-29T21:39:52.216Z,5.33
2018-09-29T21:42:20.517Z,5.19
2018-09-29T21:44:48.762Z,5.24
2018-09-29T21:47:17.022Z,5.35
2018-09-29T21:49:45.375Z,5.28
2018-09-29T21:52:13.683Z,5.18
2018-09-29T21:54:41.966Z,5.21
2018-09-29T21:57:10.246Z,5.27
2018-09-29T21:59:38.542Z,5.46
2018-09-29T22:02:06.847Z,5.44
2018-09-29T22:04:35.286Z,5.52
2018-09-29T22:07:03.498Z,5.56
2018-09-29T22:09:31.811Z,5.52
2018-09-29T22:12:00.111Z,5.36
2018-09-29T22:14:28.390Z,5.42
2018-09-29T22:16:56.662Z,5.41
2018-09-29T22:19:25.251Z,5.46
2018-09-29T22:21:53.539Z,5.51
2018-09-29T22:24:21.839Z,5.45
2018-09-29T22:26:50.142Z,5.46
2018-09-29T22:29:18.436Z,5.43
2018-09-29T22:31:46.717Z,5.52
2018-09-29T22:34:15.067Z,5.51
2018-09-29T22:36:43.330Z,5.46
2018-09-29T22:39:12.538Z,5.20
2018-09-29T22:41:40.823Z,4.96
2018-09-29T22:44:09.103Z,4.92
2018-09-29T22:46:37.440Z,4.81
2018-09-29T22:49:05.782Z,4.67
2018-09-29T22:51:34.039Z,4.66
2018-09-29T22:54:02.320Z,4.71
2018-09-29T22:56:30.687Z,4.73
2018-09-29T22:58:59.135Z,4.75
2018-09-29T23:01:27.466Z,4.71
2018-09-29T23:03:56.302Z,4.50
2018-09-29T23:06:24.591Z,4.50
2018-09-29T23:08:52.975Z,4.38
2018-09-29T23:11:21.330Z,4.23
2018-09-29T23:13:49.647Z,4.26
2018-09-29T23:16:18.259Z,4.25
2018-09-29T23:18:47.010Z,4.24
2018-09-29T23:21:15.740Z,4.37
2018-09-29T23:23:44.038Z,4.42
2018-09-29T23:26:14.746Z,4.41
2018-09-29T23:28:42.999Z,5.33
2018-09-29T23:31:11.649Z,6.15
2018-09-29T23:33:39.919Z,6.67
2018-09-29T23:36:08.195Z,6.00
2018-09-29T23:38:36.482Z,6.18
2018-09-29T23:41:05.348Z,5.93
2018-09-29T23:43:33.611Z,6.05
2018-09-29T23:46:01.955Z,5.76
2018-09-29T23:48:30.252Z,5.21
2018-09-29T23:50:58.574Z,5.10
2018-09-29T23:53:26.847Z,5.06
2018-09-29T23:55:55.142Z,5.25
2018-09-29T23:58:23.450Z,5.38
